createdAt,value
2018-12-07T00:00:08.680Z,13.09
2018-12-07T00:02:36.016Z,13.18
2018-12-07T00:05:03.263Z,13.16
2018-12-07T00:10:09.866Z,13.12
2018-12-07T00:12:37.015Z,13.17
2018-12-07T00:15:05.733Z,13.16
2018-12-07T00:17:32.903Z,13.22
2018-12-07T00:20:00.224Z,13.26
2018-12-07T00:22:27.377Z,13.20
2018-12-07T00:24:54.569Z,13.16
2018-12-07T00:27:21.708Z,13.14
2018-12-07T00:29:48.805Z,13.11
2018-12-07T00:32:15.960Z,13.12
2018-12-07T00:34:43.094Z,13.17
2018-12-07T00:37:11.770Z,13.21
2018-12-07T00:39:39.787Z,13.20
2018-12-07T00:42:06.936Z,13.21
2018-12-07T00:44:34.095Z,13.25
2018-12-07T00:47:01.214Z,13.29
2018-12-07T00:49:28.353Z,13.24
2018-12-07T00:51:55.548Z,13.28
2018-12-07T00:54:22.812Z,13.34
2018-12-07T00:56:49.932Z,13.37
2018-12-07T00:59:17.212Z,13.29
2018-12-07T01:01:44.415Z,13.30
2018-12-07T01:04:12.025Z,13.32
2018-12-07T01:06:39.182Z,13.36
2018-12-07T01:09:08.191Z,13.36
2018-12-07T01:11:36.328Z,13.27
2018-12-07T01:14:03.582Z,13.25
2018-12-07T01:16:30.726Z,13.16
2018-12-07T01:18:57.842Z,13.20
2018-12-07T01:21:24.949Z,13.21
2018-12-07T01:23:52.982Z,13.24
2018-12-07T01:26:20.077Z,13.22
2018-12-07T01:28:47.340Z,13.14
2018-12-07T01:31:14.627Z,13.09
2018-12-07T01:33:41.885Z,13.12
2018-12-07T01:36:09.145Z,13.20
2018-12-07T01:38:36.382Z,13.16
2018-12-07T01:41:03.552Z,13.18
2018-12-07T01:43:30.720Z,13.17
2018-12-07T01:45:57.836Z,13.17
2018-12-07T01:48:27.301Z,13.09
2018-12-07T01:50:54.493Z,13.13
2018-12-07T01:53:21.642Z,13.17
2018-12-07T01:55:48.750Z,13.14
2018-12-07T01:58:15.985Z,13.10
2018-12-07T02:00:43.374Z,13.14
2018-12-07T02:03:10.567Z,13.12
2018-12-07T02:05:37.769Z,13.13
2018-12-07T02:08:04.933Z,13.08
2018-12-07T02:10:32.142Z,13.10
2018-12-07T02:12:59.356Z,13.05
2018-12-07T02:15:26.539Z,13.03
2018-12-07T02:17:53.907Z,13.02
2018-12-07T02:20:21.050Z,12.99
2018-12-07T02:22:48.197Z,13.00
2018-12-07T02:25:15.316Z,12.99
2018-12-07T02:27:48.109Z,12.95
2018-12-07T02:30:16.694Z,12.98
2018-12-07T02:32:43.804Z,13.02
2018-12-07T02:35:11.327Z,13.03
2018-12-07T02:37:38.505Z,13.01
2018-12-07T02:40:05.748Z,13.03
2018-12-07T02:42:32.898Z,13.06
2018-12-07T02:45:00.147Z,13.06
2018-12-07T02:47:27.465Z,13.07
2018-12-07T02:49:54.705Z,13.07
2018-12-07T02:52:25.457Z,13.02
2018-12-07T02:54:52.588Z,12.99
2018-12-07T02:57:19.738Z,12.96
2018-12-07T02:59:52.351Z,13.01
2018-12-07T03:02:19.512Z,13.01
2018-12-07T03:04:51.108Z,13.04
2018-12-07T03:07:18.280Z,13.00
2018-12-07T03:09:45.589Z,13.02
2018-12-07T03:12:12.677Z,13.01
2018-12-07T03:14:42.693Z,12.98
2018-12-07T03:17:09.869Z,13.01
2018-12-07T03:19:37.771Z,13.08
2018-12-07T03:22:05.661Z,12.81
2018-12-07T03:24:33.781Z,13.10
2018-12-07T03:27:00.886Z,12.98
2018-12-07T03:29:28.204Z,12.99
2018-12-07T03:31:55.409Z,12.98
2018-12-07T03:34:23.130Z,12.97
2018-12-07T03:36:50.536Z,12.88
2018-12-07T03:39:17.778Z,12.81
2018-12-07T03:41:44.980Z,12.77
2018-12-07T03:44:12.165Z,12.80
2018-12-07T03:46:39.342Z,12.83
2018-12-07T03:49:06.541Z,12.86
2018-12-07T03:51:33.703Z,12.79
2018-12-07T03:54:00.834Z,12.78
2018-12-07T03:56:27.965Z,12.78
2018-12-07T03:58:56.848Z,12.80
2018-12-07T04:01:23.995Z,12.76
2018-12-07T04:03:51.340Z,12.74
2018-12-07T04:06:18.664Z,12.75
2018-12-07T04:08:45.951Z,12.73
2018-12-07T04:16:03.929Z,12.60
2018-12-07T04:18:31.067Z,12.66
2018-12-07T04:20:58.305Z,12.60
2018-12-07T04:23:25.553Z,12.56
2018-12-07T04:25:52.804Z,12.47
2018-12-07T04:28:19.983Z,12.42
2018-12-07T04:30:47.154Z,12.39
2018-12-07T04:33:14.858Z,12.37
2018-12-07T04:35:42.105Z,12.31
2018-12-07T04:38:09.222Z,12.40
2018-12-07T04:40:37.076Z,12.34
2018-12-07T04:43:04.236Z,12.37
2018-12-07T04:45:31.426Z,12.30
2018-12-07T04:47:58.697Z,12.33
2018-12-07T04:50:25.938Z,12.34
2018-12-07T04:52:53.080Z,12.32
2018-12-07T04:55:20.231Z,12.23
2018-12-07T04:57:47.533Z,12.26
2018-12-07T05:00:14.727Z,12.29
2018-12-07T05:02:41.942Z,12.30
2018-12-07T05:05:11.202Z,12.39
2018-12-07T05:07:38.540Z,12.40
2018-12-07T05:10:06.266Z,12.37
2018-12-07T05:12:33.605Z,12.37
2018-12-07T05:15:00.836Z,12.43
2018-12-07T05:17:28.088Z,12.43
2018-12-07T05:19:55.239Z,12.42
2018-12-07T05:22:22.493Z,12.34
2018-12-07T05:24:49.768Z,12.40
2018-12-07T05:27:16.899Z,12.39
2018-12-07T05:29:44.466Z,12.31
2018-12-07T05:32:12.422Z,12.38
2018-12-07T05:34:39.805Z,12.41
2018-12-07T05:37:06.961Z,12.42
2018-12-07T05:39:34.798Z,12.39
2018-12-07T05:42:02.710Z,12.38
2018-12-07T05:44:29.846Z,12.28
2018-12-07T05:46:57.341Z,12.35
2018-12-07T05:49:24.537Z,12.34
2018-12-07T05:51:51.706Z,12.30
2018-12-07T05:54:18.854Z,12.32
2018-12-07T05:56:46.052Z,12.28
2018-12-07T05:59:14.220Z,12.31
2018-12-07T06:01:42.045Z,12.32
2018-12-07T06:04:09.226Z,12.31
2018-12-07T06:06:36.597Z,12.32
2018-12-07T06:09:06.076Z,12.37
2018-12-07T06:11:33.305Z,12.40
2018-12-07T06:14:00.504Z,12.37
2018-12-07T06:16:28.193Z,12.41
2018-12-07T06:18:55.453Z,12.45
2018-12-07T06:21:22.681Z,12.47
2018-12-07T06:23:50.014Z,11.60
2018-12-07T06:26:17.798Z,12.34
2018-12-07T06:28:45.084Z,12.35
2018-12-07T06:31:12.302Z,12.33
2018-12-07T06:33:39.476Z,12.36
2018-12-07T06:36:06.633Z,12.25
2018-12-07T06:38:33.921Z,12.25
2018-12-07T06:41:01.116Z,12.33
2018-12-07T06:43:28.492Z,12.30
2018-12-07T06:45:55.734Z,12.32
2018-12-07T06:48:23.051Z,12.28
2018-12-07T06:50:53.346Z,12.31
2018-12-07T06:53:20.654Z,12.28
2018-12-07T06:55:51.997Z,12.26
2018-12-07T06:58:19.666Z,12.25
2018-12-07T07:00:47.132Z,12.33
2018-12-07T07:03:14.647Z,12.31
2018-12-07T07:05:42.345Z,12.22
2018-12-07T07:08:09.612Z,12.18
2018-12-07T07:10:36.846Z,12.24
2018-12-07T07:13:04.715Z,12.20
2018-12-07T07:15:31.961Z,12.13
2018-12-07T07:17:59.153Z,12.15
2018-12-07T07:20:26.501Z,12.18
2018-12-07T07:22:53.853Z,12.19
2018-12-07T07:25:20.989Z,12.21
2018-12-07T07:27:48.398Z,12.27
2018-12-07T07:30:15.628Z,12.33
2018-12-07T07:32:42.917Z,12.25
2018-12-07T07:35:10.253Z,12.22
2018-12-07T07:37:37.432Z,12.24
2018-12-07T07:40:04.635Z,12.18
2018-12-07T07:42:32.525Z,12.16
2018-12-07T07:44:59.961Z,12.19
2018-12-07T07:47:27.172Z,12.20
2018-12-07T07:49:54.339Z,12.23
2018-12-07T07:52:21.504Z,10.45
2018-12-07T07:54:49.868Z,12.23
2018-12-07T07:57:18.296Z,12.22
2018-12-07T07:59:46.615Z,12.31
2018-12-07T08:02:13.782Z,12.28
2018-12-07T08:04:41.668Z,12.32
2018-12-07T08:07:08.960Z,12.37
2018-12-07T08:09:36.252Z,12.42
2018-12-07T08:12:03.617Z,12.37
2018-12-07T08:14:31.041Z,12.30
2018-12-07T08:16:58.242Z,12.34
2018-12-07T08:19:25.611Z,12.45
2018-12-07T08:21:52.871Z,12.40
2018-12-07T08:24:20.189Z,12.38
2018-12-07T08:26:47.743Z,12.35
2018-12-07T08:29:15.411Z,12.39
2018-12-07T08:31:42.603Z,12.31
2018-12-07T08:34:09.764Z,12.34
2018-12-07T08:36:36.964Z,12.25
2018-12-07T08:39:08.621Z,12.27
2018-12-07T08:41:36.856Z,12.34
2018-12-07T08:44:04.313Z,12.41
2018-12-07T08:46:31.599Z,12.38
2018-12-07T08:48:58.953Z,12.36
2018-12-07T08:51:26.109Z,12.34
2018-12-07T08:53:53.281Z,12.39
2018-12-07T08:56:20.605Z,12.32
2018-12-07T08:58:47.772Z,12.35
2018-12-07T09:01:15.277Z,12.43
2018-12-07T09:03:42.604Z,12.43
2018-12-07T09:06:10.584Z,12.42
2018-12-07T09:08:37.871Z,12.32
2018-12-07T09:11:05.438Z,12.42
2018-12-07T09:13:33.244Z,12.39
2018-12-07T09:16:00.485Z,12.42
2018-12-07T09:18:27.613Z,12.37
2018-12-07T09:20:55.330Z,12.32
2018-12-07T09:23:23.307Z,12.26
2018-12-07T09:25:50.574Z,10.96
2018-12-07T09:28:17.747Z,12.24
2018-12-07T09:30:45.019Z,12.30
2018-12-07T09:33:12.618Z,12.28
2018-12-07T09:35:41.219Z,12.25
2018-12-07T09:38:13.083Z,12.24
2018-12-07T09:40:39.585Z,12.21
2018-12-07T09:43:06.858Z,12.25
2018-12-07T09:45:34.136Z,12.29
2018-12-07T09:48:01.377Z,12.26
2018-12-07T09:50:28.557Z,12.30
2018-12-07T09:52:56.606Z,12.24
2018-12-07T09:55:24.749Z,12.21
2018-12-07T09:57:52.235Z,12.25
2018-12-07T10:00:19.356Z,12.31
2018-12-07T10:02:46.682Z,12.27
2018-12-07T10:05:14.029Z,12.32
2018-12-07T10:07:41.313Z,12.26
2018-12-07T10:10:08.862Z,12.34
2018-12-07T10:12:36.272Z,12.36
2018-12-07T10:15:04.000Z,12.44
2018-12-07T10:17:31.239Z,12.43
2018-12-07T10:19:59.132Z,12.41
2018-12-07T10:22:26.276Z,12.43
2018-12-07T10:24:53.498Z,12.40
2018-12-07T10:27:20.825Z,12.41
2018-12-07T10:29:48.068Z,12.35
2018-12-07T10:32:15.819Z,12.28
2018-12-07T10:34:43.756Z,12.34
2018-12-07T10:37:10.991Z,11.30
2018-12-07T10:39:38.828Z,12.29
2018-12-07T10:42:06.128Z,12.34
2018-12-07T10:44:33.482Z,12.36
2018-12-07T10:47:01.357Z,12.38
2018-12-07T10:49:29.773Z,12.34
2018-12-07T10:51:57.986Z,12.31
2018-12-07T10:54:29.446Z,12.41
2018-12-07T10:56:56.948Z,12.39
2018-12-07T10:59:24.170Z,12.33
2018-12-07T11:01:57.252Z,12.40
2018-12-07T11:04:30.281Z,12.30
2018-12-07T11:07:03.334Z,12.36
2018-12-07T11:09:36.110Z,12.28
2018-12-07T11:12:08.898Z,12.35
2018-12-07T11:14:41.869Z,12.27
2018-12-07T11:17:14.636Z,12.36
2018-12-07T11:19:47.461Z,12.24
2018-12-07T11:22:21.020Z,12.30
2018-12-07T11:24:53.837Z,12.25
2018-12-07T11:27:27.923Z,12.28
2018-12-07T11:30:00.894Z,12.28
2018-12-07T11:32:37.721Z,12.25
2018-12-07T11:35:11.025Z,12.19
2018-12-07T11:37:38.252Z,12.22
2018-12-07T11:40:06.606Z,12.19
2018-12-07T11:42:33.916Z,12.18
2018-12-07T11:45:01.627Z,12.15
2018-12-07T11:47:28.972Z,12.06
2018-12-07T11:49:56.170Z,11.99
2018-12-07T11:52:23.622Z,11.92
2018-12-07T11:54:51.155Z,11.98
2018-12-07T11:57:18.969Z,11.92
2018-12-07T11:59:46.153Z,11.99
2018-12-07T12:02:13.970Z,12.00
2018-12-07T12:04:41.088Z,12.06
2018-12-07T12:07:08.314Z,12.09
2018-12-07T12:09:35.817Z,12.09
2018-12-07T12:12:03.909Z,12.07
2018-12-07T12:14:31.093Z,12.13
2018-12-07T12:16:58.722Z,12.09
2018-12-07T12:21:51.053Z,12.06
2018-12-07T12:24:18.316Z,12.07
2018-12-07T12:26:45.460Z,12.05
2018-12-07T12:29:13.365Z,12.08
2018-12-07T12:31:40.581Z,12.12
2018-12-07T12:34:07.677Z,12.16
2018-12-07T13:05:14.778Z,11.86
2018-12-07T13:07:48.452Z,11.83
2018-12-07T13:10:17.706Z,11.75
2018-12-07T13:12:44.852Z,11.73
2018-12-07T13:15:12.879Z,11.73
2018-12-07T13:17:40.070Z,11.79
2018-12-07T13:20:08.129Z,11.83
2018-12-07T13:22:35.407Z,11.80
2018-12-07T13:25:02.785Z,11.77
2018-12-07T13:27:30.643Z,11.78
2018-12-07T13:29:57.786Z,11.83
2018-12-07T13:32:25.022Z,11.75
2018-12-07T13:34:58.382Z,11.78
2018-12-07T13:37:26.201Z,11.80
2018-12-07T13:39:53.462Z,11.87
2018-12-07T13:42:20.851Z,12.01
2018-12-07T13:44:48.744Z,11.93
2018-12-07T13:47:16.163Z,11.93
2018-12-07T13:49:43.465Z,12.01
2018-12-07T13:52:11.101Z,11.95
2018-12-07T13:54:38.673Z,11.85
2018-12-07T13:57:06.006Z,11.80
2018-12-07T13:59:33.201Z,11.81
2018-12-07T14:02:00.585Z,11.93
2018-12-07T14:04:28.953Z,11.92
2018-12-07T14:06:56.824Z,11.83
2018-12-07T14:09:24.306Z,11.86
2018-12-07T14:11:51.621Z,11.88
2018-12-07T14:14:18.943Z,11.88
2018-12-07T14:16:46.479Z,11.82
2018-12-07T14:19:13.792Z,11.91
2018-12-07T14:21:41.070Z,11.85
2018-12-07T14:24:08.298Z,11.85
2018-12-07T14:26:35.715Z,11.79
2018-12-07T14:29:03.481Z,11.77
2018-12-07T14:31:30.897Z,11.75
2018-12-07T14:33:58.623Z,11.86
2018-12-07T14:36:26.455Z,11.79
2018-12-07T14:38:53.696Z,11.79
2018-12-07T14:41:21.235Z,11.71
2018-12-07T14:43:48.597Z,11.81
2018-12-07T14:46:16.026Z,11.75
2018-12-07T14:48:43.406Z,11.85
2018-12-07T14:51:10.745Z,11.78
2018-12-07T14:53:38.460Z,11.81
2018-12-07T14:56:06.210Z,11.85
2018-12-07T14:58:33.787Z,11.69
2018-12-07T15:01:01.333Z,11.75
2018-12-07T15:03:28.575Z,11.74
2018-12-07T15:05:55.971Z,11.71
2018-12-07T15:08:23.547Z,11.66
2018-12-07T15:10:50.846Z,11.59
2018-12-07T15:13:18.456Z,11.57
2018-12-07T15:15:46.193Z,11.63
2018-12-07T15:18:13.786Z,11.63
2018-12-07T15:20:43.931Z,11.66
2018-12-07T15:23:11.867Z,11.71
2018-12-07T15:25:39.595Z,11.73
2018-12-07T15:28:07.106Z,11.72
2018-12-07T15:30:34.661Z,11.73
2018-12-07T15:33:02.041Z,11.70
2018-12-07T15:35:29.384Z,11.80
2018-12-07T15:37:56.727Z,11.85
2018-12-07T15:40:24.163Z,11.86
2018-12-07T15:42:51.729Z,11.86
2018-12-07T15:45:19.968Z,11.88
2018-12-07T15:47:47.336Z,11.93
2018-12-07T15:50:14.958Z,11.96
2018-12-07T15:52:42.628Z,11.97
2018-12-07T15:55:10.921Z,11.99
2018-12-07T15:57:38.323Z,11.93
2018-12-07T16:00:07.080Z,11.83
2018-12-07T16:02:34.530Z,11.87
2018-12-07T16:05:01.941Z,11.86
2018-12-07T16:07:29.392Z,11.88
2018-12-07T16:09:58.108Z,11.78
2018-12-07T16:12:25.665Z,11.70
2018-12-07T16:14:53.293Z,11.75
2018-12-07T16:17:20.584Z,11.72
2018-12-07T16:19:47.994Z,11.64
2018-12-07T16:22:15.589Z,11.62
2018-12-07T16:24:43.287Z,11.63
2018-12-07T16:27:11.242Z,11.68
2018-12-07T16:29:39.293Z,11.72
2018-12-07T16:32:06.563Z,11.67
2018-12-07T16:34:33.998Z,11.58
2018-12-07T16:37:01.256Z,11.56
2018-12-07T16:39:28.836Z,11.62
2018-12-07T16:41:56.657Z,11.63
2018-12-07T16:44:24.732Z,11.45
2018-12-07T16:46:51.894Z,11.50
2018-12-07T16:49:19.662Z,11.43
2018-12-07T16:51:47.049Z,11.40
2018-12-07T16:54:14.362Z,11.46
2018-12-07T16:56:42.270Z,11.40
2018-12-07T16:59:09.568Z,11.37
2018-12-07T17:01:37.250Z,11.26
2018-12-07T17:04:05.597Z,11.25
2018-12-07T17:06:32.801Z,11.22
2018-12-07T17:09:00.006Z,11.17
2018-12-07T17:11:28.265Z,11.08
2018-12-07T17:13:56.084Z,11.11
2018-12-07T17:16:24.599Z,11.09
2018-12-07T17:18:52.272Z,11.02
2018-12-07T17:21:26.116Z,10.94
2018-12-07T17:24:04.392Z,10.89
2018-12-07T17:26:31.678Z,10.87
2018-12-07T17:29:06.063Z,10.90
2018-12-07T17:31:40.133Z,10.93
2018-12-07T17:37:10.704Z,10.97
2018-12-07T17:39:42.250Z,10.99
2018-12-07T17:42:16.333Z,10.99
2018-12-07T17:44:43.700Z,11.06
2018-12-07T17:47:12.303Z,11.10
2018-12-07T17:49:49.831Z,11.10
2018-12-07T17:52:36.218Z,11.14
2018-12-07T17:55:03.673Z,11.09
2018-12-07T17:57:31.283Z,11.02
2018-12-07T17:59:58.911Z,11.12
2018-12-07T18:02:26.431Z,11.13
2018-12-07T18:04:53.733Z,11.08
2018-12-07T18:07:21.251Z,11.14
2018-12-07T18:09:48.724Z,11.17
2018-12-07T18:12:16.269Z,11.11
2018-12-07T18:17:40.604Z,11.13
2018-12-07T18:20:18.554Z,11.22
2018-12-07T18:22:46.294Z,11.22
2018-12-07T18:25:13.828Z,11.27
2018-12-07T18:27:41.152Z,11.28
2018-12-07T18:30:08.465Z,11.24
2018-12-07T18:32:40.567Z,11.23
2018-12-07T18:35:09.931Z,11.18
2018-12-07T18:40:40.097Z,11.13
2018-12-07T18:46:11.306Z,11.15
2018-12-07T18:48:38.554Z,11.17
2018-12-07T18:51:05.768Z,11.23
2018-12-07T18:53:33.029Z,11.24
2018-12-07T18:56:00.218Z,11.17
2018-12-07T18:58:27.343Z,11.17
2018-12-07T19:00:54.713Z,11.13
2018-12-07T19:03:22.088Z,11.06
2018-12-07T19:05:56.278Z,11.08
2018-12-07T19:08:23.593Z,11.03
2018-12-07T19:10:50.830Z,10.91
2018-12-07T19:13:21.400Z,10.82
2018-12-07T19:15:49.490Z,10.85
2018-12-07T19:18:17.133Z,10.82
2018-12-07T19:20:44.428Z,10.70
2018-12-07T19:23:11.541Z,10.65
2018-12-07T19:25:38.688Z,10.54
2018-12-07T19:28:06.726Z,10.43
2018-12-07T19:30:34.048Z,10.34
2018-12-07T19:33:01.254Z,10.32
2018-12-07T19:35:28.794Z,10.24
2018-12-07T19:37:56.251Z,10.24
2018-12-07T19:40:23.630Z,10.32
2018-12-07T19:42:50.962Z,10.20
2018-12-07T19:45:18.404Z,10.20
2018-12-07T19:47:45.844Z,10.12
2018-12-07T19:50:13.328Z,10.06
2018-12-07T19:52:40.819Z,10.15
2018-12-07T19:55:08.286Z,10.11
2018-12-07T19:57:36.135Z,10.11
2018-12-07T20:00:05.295Z,10.10
2018-12-07T20:02:32.500Z,10.06
2018-12-07T20:04:59.598Z,10.08
2018-12-07T20:07:26.812Z,10.05
2018-12-07T20:09:54.011Z,10.15
2018-12-07T20:12:21.208Z,10.12
2018-12-07T20:14:48.384Z,10.05
2018-12-07T20:17:15.604Z,10.05
2018-12-07T20:19:45.224Z,10.11
2018-12-07T20:22:13.135Z,10.03
2018-12-07T20:24:40.794Z,9.94
2018-12-07T20:27:08.575Z,9.98
2018-12-07T20:29:35.942Z,9.88
2018-12-07T20:32:03.459Z,9.81
2018-12-07T20:34:30.841Z,9.84
2018-12-07T20:36:58.083Z,9.80
2018-12-07T20:39:25.391Z,9.77
2018-12-07T20:41:53.068Z,9.78
2018-12-07T20:44:20.480Z,9.84
2018-12-07T20:46:47.768Z,9.89
2018-12-07T20:49:15.091Z,9.84
2018-12-07T20:51:42.508Z,9.85
2018-12-07T20:54:10.020Z,9.82
2018-12-07T20:56:37.532Z,9.80
2018-12-07T20:59:04.707Z,9.84
2018-12-07T21:01:35.061Z,9.74
2018-12-07T21:04:42.122Z,9.72
2018-12-07T21:07:31.797Z,9.66
2018-12-07T21:11:11.973Z,9.73
2018-12-07T21:13:51.707Z,9.61
2018-12-07T21:17:29.649Z,9.54
2018-12-07T21:20:28.996Z,9.52
2018-12-07T21:22:56.826Z,9.50
2018-12-07T21:25:24.399Z,9.56
2018-12-07T21:27:52.145Z,9.53
2018-12-07T21:31:02.860Z,9.55
2018-12-07T21:34:39.455Z,9.60
2018-12-07T21:37:06.991Z,9.58
2018-12-07T21:39:40.428Z,9.56
2018-12-07T21:42:07.710Z,9.59
2018-12-07T21:44:35.166Z,9.56
2018-12-07T21:47:03.390Z,9.57
2018-12-07T21:49:35.889Z,9.49
2018-12-07T21:52:18.242Z,9.53
2018-12-07T21:54:45.511Z,9.54
2018-12-07T21:57:13.608Z,9.50
2018-12-07T21:59:40.836Z,9.45
2018-12-07T22:02:08.398Z,9.43
2018-12-07T22:04:36.038Z,9.38
2018-12-07T22:07:03.954Z,9.33
2018-12-07T22:09:31.388Z,9.32
2018-12-07T22:11:58.608Z,9.14
2018-12-07T22:14:26.410Z,9.14
2018-12-07T22:16:53.949Z,8.95
2018-12-07T22:19:21.166Z,8.80
2018-12-07T22:21:48.754Z,8.67
2018-12-07T22:24:16.115Z,8.29
2018-12-07T22:26:44.009Z,8.32
2018-12-07T22:29:11.414Z,8.21
2018-12-07T22:31:38.639Z,7.90
2018-12-07T22:34:05.835Z,7.84
2018-12-07T22:36:33.038Z,7.81
2018-12-07T22:39:00.512Z,7.89
2018-12-07T22:41:27.982Z,7.86
2018-12-07T22:43:55.354Z,7.97
2018-12-07T22:46:23.391Z,8.04
2018-12-07T22:48:51.346Z,8.04
2018-12-07T22:51:23.270Z,8.04
2018-12-07T22:53:50.617Z,8.10
2018-12-07T22:56:17.812Z,8.13
2018-12-07T22:58:47.049Z,8.14
2018-12-07T23:01:14.527Z,8.19
2018-12-07T23:03:42.450Z,8.15
2018-12-07T23:06:09.675Z,8.16
2018-12-07T23:08:36.825Z,8.19
2018-12-07T23:11:03.953Z,8.17
2018-12-07T23:13:31.172Z,8.15
2018-12-07T23:15:58.320Z,8.01
2018-12-07T23:18:25.403Z,7.93
2018-12-07T23:20:52.629Z,7.85
2018-12-07T23:23:19.908Z,7.76
2018-12-07T23:25:47.181Z,7.65
2018-12-07T23:28:19.477Z,7.54
2018-12-07T23:30:43.484Z,7.50
2018-12-07T23:33:10.599Z,7.51
2018-12-07T23:35:38.555Z,7.49
2018-12-07T23:38:05.823Z,7.44
2018-12-07T23:40:32.889Z,7.44
2018-12-07T23:43:00.932Z,7.50
2018-12-07T23:45:28.229Z,7.54
2018-12-07T23:47:55.372Z,7.53
2018-12-07T23:50:22.581Z,7.53
2018-12-07T23:52:49.780Z,7.48
2018-12-07T23:55:16.863Z,7.46
2018-12-07T23:57:43.960Z,7.51
